createdAt,value
2018-08-28T00:00:23.541Z,17.63
2018-08-28T00:02:54.348Z,17.78
2018-08-28T00:05:24.413Z,17.95
2018-08-28T00:07:55.764Z,18.06
2018-08-28T00:10:26.366Z,18.16
2018-08-28T00:12:56.989Z,18.22
2018-08-28T00:15:28.248Z,18.22
2018-08-28T00:17:58.619Z,18.03
2018-08-28T00:20:30.355Z,17.90
2018-08-28T00:23:01.759Z,18.03
2018-08-28T00:25:32.483Z,18.23
2018-08-28T00:28:02.643Z,18.31
2018-08-28T00:30:32.765Z,18.28
2018-08-28T00:33:05.661Z,18.17
2018-08-28T00:35:37.030Z,18.29
2018-08-28T00:38:09.993Z,18.28
2018-08-28T00:40:40.417Z,18.31
2018-08-28T00:43:14.361Z,18.46
2018-08-28T00:45:44.789Z,18.45
2018-08-28T00:48:15.248Z,18.50
2018-08-28T00:50:45.568Z,18.60
2018-08-28T00:53:16.654Z,18.51
2018-08-28T00:55:46.901Z,18.46
2018-08-28T00:58:17.768Z,18.47
2018-08-28T01:00:48.023Z,18.56
2018-08-28T01:03:19.324Z,18.60
2018-08-28T01:05:50.632Z,18.57
2018-08-28T01:08:22.830Z,18.61
2018-08-28T01:10:53.376Z,18.71
2018-08-28T01:13:25.302Z,18.59
2018-08-28T01:15:55.646Z,18.50
2018-08-28T01:18:26.347Z,18.52
2018-08-28T01:20:57.812Z,18.58
2018-08-28T01:23:27.975Z,18.59
2018-08-28T01:25:58.124Z,18.52
2018-08-28T01:28:29.214Z,18.46
2018-08-28T01:30:59.606Z,18.58
2018-08-28T01:33:30.578Z,18.55
2018-08-28T01:36:00.722Z,18.47
2018-08-28T01:38:30.978Z,18.47
2018-08-28T01:41:01.094Z,18.46
2018-08-28T01:43:32.448Z,18.48
2018-08-28T01:46:03.242Z,18.51
2018-08-28T01:48:34.496Z,18.49
2018-08-28T01:51:05.850Z,18.46
2018-08-28T01:53:37.502Z,18.25
2018-08-28T01:56:09.176Z,18.03
2018-08-28T01:58:40.124Z,18.00
2018-08-28T02:01:11.194Z,18.03
2018-08-28T02:03:41.384Z,17.87
2018-08-28T02:06:11.528Z,17.80
2018-08-28T02:08:41.578Z,17.83
2018-08-28T02:11:13.620Z,17.71
2018-08-28T02:13:44.597Z,17.74
2018-08-28T02:16:15.685Z,17.73
2018-08-28T02:18:46.030Z,17.70
2018-08-28T02:21:17.526Z,17.72
2018-08-28T02:23:49.212Z,17.84
2018-08-28T02:26:20.574Z,17.83
2018-08-28T02:28:50.630Z,17.77
2018-08-28T02:31:21.326Z,17.78
2018-08-28T02:33:52.460Z,17.80
2018-08-28T02:36:25.760Z,17.75
2018-08-28T02:38:57.412Z,17.76
2018-08-28T02:41:27.612Z,17.81
2018-08-28T02:43:59.467Z,17.86
2018-08-28T02:46:30.232Z,17.80
2018-08-28T02:49:01.659Z,17.88
2018-08-28T02:51:32.023Z,17.93
2018-08-28T02:54:04.793Z,17.94
2018-08-28T02:56:36.058Z,17.95
2018-08-28T02:59:07.734Z,17.63
2018-08-28T03:01:38.704Z,17.53
2018-08-28T03:04:10.537Z,17.57
2018-08-28T03:06:41.901Z,17.53
2018-08-28T03:09:12.645Z,17.41
2018-08-28T03:11:42.897Z,17.50
2018-08-28T03:14:15.133Z,17.47
2018-08-28T03:16:45.553Z,17.46
2018-08-28T03:19:17.599Z,17.46
2018-08-28T03:21:47.865Z,17.52
2018-08-28T03:24:19.288Z,17.66
2018-08-28T03:26:49.573Z,17.64
2018-08-28T03:29:20.547Z,17.70
2018-08-28T03:31:50.987Z,17.64
2018-08-28T03:34:21.065Z,17.69
2018-08-28T03:36:52.529Z,17.72
2018-08-28T03:39:23.661Z,17.62
2018-08-28T03:41:54.587Z,17.55
2018-08-28T03:44:24.694Z,17.50
2018-08-28T03:46:55.752Z,17.45
2018-08-28T03:49:26.152Z,17.30
2018-08-28T03:51:57.058Z,17.15
2018-08-28T03:54:28.169Z,17.05
2018-08-28T03:56:59.971Z,16.97
2018-08-28T03:59:30.581Z,16.86
2018-08-28T04:02:01.321Z,16.73
2018-08-28T04:04:32.323Z,16.68
2018-08-28T04:07:02.931Z,16.69
2018-08-28T04:09:33.463Z,16.73
2018-08-28T04:12:04.446Z,16.79
2018-08-28T04:14:35.255Z,16.78
2018-08-28T04:17:05.480Z,16.87
2018-08-28T04:19:36.295Z,16.84
2018-08-28T04:22:07.647Z,16.75
2018-08-28T04:24:38.649Z,16.60
2018-08-28T04:27:08.780Z,16.59
2018-08-28T04:29:40.261Z,16.62
2018-08-28T04:32:11.211Z,16.49
2018-08-28T04:34:42.479Z,16.58
2018-08-28T04:37:12.694Z,16.55
2018-08-28T04:39:43.097Z,16.52
2018-08-28T04:42:14.139Z,16.56
2018-08-28T04:44:44.833Z,16.66
2018-08-28T04:47:16.831Z,16.82
2018-08-28T04:49:47.849Z,16.86
2018-08-28T04:52:22.013Z,16.98
2018-08-28T04:54:52.444Z,17.13
2018-08-28T04:57:23.777Z,17.25
2018-08-28T04:59:56.415Z,17.37
2018-08-28T05:02:30.946Z,17.44
2018-08-28T05:05:01.952Z,17.43
2018-08-28T05:07:33.703Z,17.41
2018-08-28T05:10:04.571Z,17.49
2018-08-28T05:12:35.045Z,17.60
2018-08-28T05:15:05.532Z,17.61
2018-08-28T05:17:36.305Z,17.66
2018-08-28T05:20:07.815Z,17.58
2018-08-28T05:22:39.281Z,17.51
2018-08-28T05:25:11.391Z,17.47
2018-08-28T05:27:42.688Z,17.36
2018-08-28T05:30:15.540Z,17.40
2018-08-28T05:32:47.858Z,17.32
2018-08-28T05:35:19.084Z,17.25
2018-08-28T05:37:50.243Z,17.31
2018-08-28T05:40:22.821Z,17.41
2018-08-28T05:42:53.090Z,17.55
2018-08-28T05:45:25.191Z,17.87
2018-08-28T05:47:58.611Z,18.29
2018-08-28T05:50:32.823Z,18.52
2018-08-28T05:53:08.445Z,18.91
2018-08-28T05:55:39.330Z,18.93
2018-08-28T05:58:11.272Z,18.89
2018-08-28T06:00:41.450Z,19.19
2018-08-28T06:03:13.449Z,19.31
2018-08-28T06:05:44.621Z,19.52
2018-08-28T06:08:15.981Z,19.00
2018-08-28T06:10:46.871Z,18.97
2018-08-28T06:13:19.275Z,18.78
2018-08-28T06:15:49.438Z,18.68
2018-08-28T06:18:19.790Z,19.12
2018-08-28T06:20:49.992Z,19.67
2018-08-28T06:23:21.373Z,20.32
2018-08-28T06:25:51.475Z,20.48
2018-08-28T06:28:21.641Z,20.32
2018-08-28T06:30:51.761Z,20.30
2018-08-28T06:33:22.173Z,20.17
2018-08-28T06:35:53.221Z,20.23
2018-08-28T06:38:24.380Z,20.09
2018-08-28T06:40:55.527Z,20.06
2018-08-28T06:43:27.759Z,19.63
2018-08-28T06:45:59.053Z,19.47
2018-08-28T06:48:29.376Z,19.09
2018-08-28T06:51:03.825Z,18.99
2018-08-28T06:53:34.373Z,19.48
2018-08-28T06:56:08.303Z,19.99
2018-08-28T06:58:39.337Z,20.13
2018-08-28T07:01:11.610Z,20.94
2018-08-28T07:03:42.035Z,21.57
2018-08-28T07:06:12.735Z,21.39
2018-08-28T07:08:43.840Z,21.10
2018-08-28T07:11:15.189Z,20.71
2018-08-28T07:13:45.892Z,20.31
2018-08-28T07:16:17.168Z,20.11
2018-08-28T07:18:47.606Z,20.37
2018-08-28T07:21:18.285Z,20.98
2018-08-28T07:23:49.690Z,22.03
2018-08-28T07:26:25.695Z,22.51
2018-08-28T07:28:57.122Z,23.12
2018-08-28T07:31:28.749Z,23.29
2018-08-28T07:33:59.650Z,22.49
2018-08-28T07:36:30.956Z,22.15
2018-08-28T07:39:01.811Z,22.57
2018-08-28T07:41:32.375Z,22.41
2018-08-28T07:44:02.959Z,22.97
2018-08-28T07:46:33.170Z,22.89
2018-08-28T07:49:05.500Z,22.43
2018-08-28T07:51:36.656Z,23.40
2018-08-28T07:54:07.536Z,24.37
2018-08-28T07:56:37.684Z,24.73
2018-08-28T07:59:11.548Z,23.81
2018-08-28T08:01:42.478Z,24.26
2018-08-28T08:04:14.719Z,24.32
2018-08-28T08:06:46.909Z,24.46
2018-08-28T08:09:20.669Z,25.55
2018-08-28T08:11:51.307Z,25.30
2018-08-28T08:14:22.625Z,25.28
2018-08-28T08:16:54.780Z,25.13
2018-08-28T08:19:26.336Z,24.61
2018-08-28T08:21:59.163Z,24.23
2018-08-28T08:24:30.745Z,23.28
2018-08-28T08:27:03.644Z,22.67
2018-08-28T08:29:35.618Z,23.40
2018-08-28T08:32:13.202Z,24.49
2018-08-28T08:34:46.506Z,24.38
2018-08-28T08:37:19.969Z,24.44
2018-08-28T08:39:54.197Z,24.95
2018-08-28T08:42:27.076Z,25.66
2018-08-28T08:44:58.374Z,26.73
2018-08-28T08:47:33.757Z,26.54
2018-08-28T08:50:05.032Z,26.64
2018-08-28T08:52:37.958Z,25.98
2018-08-28T08:55:09.576Z,26.16
2018-08-28T08:57:40.796Z,26.18
2018-08-28T09:00:12.225Z,26.14
2018-08-28T09:02:43.084Z,25.74
2018-08-28T09:05:13.986Z,25.97
2018-08-28T09:07:45.644Z,26.96
2018-08-28T09:10:16.361Z,26.94
2018-08-28T09:12:47.328Z,27.28
2018-08-28T09:15:19.883Z,26.77
2018-08-28T09:17:51.457Z,26.53
2018-08-28T09:20:22.779Z,26.94
2018-08-28T09:22:54.522Z,27.17
2018-08-28T09:25:28.142Z,26.62
2018-08-28T09:27:58.437Z,27.92
2018-08-28T09:30:29.971Z,28.62
2018-08-28T09:33:01.091Z,30.37
2018-08-28T09:35:32.337Z,29.02
2018-08-28T09:38:06.395Z,29.17
2018-08-28T09:40:36.573Z,29.56
2018-08-28T09:43:06.822Z,28.87
2018-08-28T09:45:37.386Z,28.10
2018-08-28T09:48:08.895Z,28.79
2018-08-28T09:50:39.879Z,28.67
2018-08-28T09:53:10.035Z,28.28
2018-08-28T09:55:40.532Z,28.55
2018-08-28T09:58:10.648Z,29.94
2018-08-28T10:00:46.493Z,30.82
2018-08-28T10:03:17.554Z,30.93
2018-08-28T10:05:48.622Z,31.53
2018-08-28T10:08:19.453Z,31.69
2018-08-28T10:10:49.606Z,32.11
2018-08-28T10:13:20.972Z,32.24
2018-08-28T10:15:56.459Z,32.62
2018-08-28T10:18:27.148Z,32.42
2018-08-28T10:20:57.506Z,33.36
2018-08-28T10:23:30.292Z,33.62
2018-08-28T10:26:00.807Z,33.56
2018-08-28T10:28:32.937Z,32.65
2018-08-28T10:31:04.305Z,32.36
2018-08-28T10:33:34.547Z,32.86
2018-08-28T10:36:04.641Z,31.63
2018-08-28T10:38:35.235Z,31.19
2018-08-28T10:41:06.975Z,32.80
2018-08-28T10:43:37.382Z,32.86
2018-08-28T10:46:08.094Z,31.92
2018-08-28T10:48:38.419Z,32.44
2018-08-28T10:51:09.265Z,31.68
2018-08-28T10:53:40.107Z,31.24
2018-08-28T10:56:10.373Z,32.41
2018-08-28T10:58:41.156Z,33.57
2018-08-28T11:01:11.841Z,31.82
2018-08-28T11:03:42.917Z,31.83
2018-08-28T11:06:14.135Z,33.73
2018-08-28T11:08:44.292Z,34.56
2018-08-28T11:11:16.468Z,35.02
2018-08-28T11:13:46.679Z,34.98
2018-08-28T11:16:17.204Z,33.09
2018-08-28T11:18:47.124Z,32.16
2018-08-28T11:21:18.608Z,32.62
2018-08-28T11:23:49.674Z,31.62
2018-08-28T11:26:20.290Z,32.89
2018-08-28T11:28:52.009Z,33.80
2018-08-28T11:31:22.725Z,34.74
2018-08-28T11:33:53.666Z,35.07
2018-08-28T11:36:25.353Z,35.12
2018-08-28T11:38:56.670Z,35.30
2018-08-28T11:41:27.174Z,35.79
2018-08-28T11:43:57.405Z,35.93
2018-08-28T11:46:29.792Z,36.33
2018-08-28T11:49:00.107Z,35.93
2018-08-28T11:51:30.974Z,35.97
2018-08-28T11:54:02.260Z,35.82
2018-08-28T11:56:33.684Z,34.70
2018-08-28T11:59:04.888Z,35.87
2018-08-28T12:01:35.595Z,37.13
2018-08-28T12:04:05.794Z,37.62
2018-08-28T12:06:36.328Z,36.80
2018-08-28T12:09:09.203Z,37.28
2018-08-28T12:11:39.565Z,37.89
2018-08-28T12:14:11.078Z,37.95
2018-08-28T12:16:42.339Z,38.45
2018-08-28T12:19:12.545Z,39.24
2018-08-28T12:21:44.171Z,37.39
2018-08-28T12:24:14.464Z,38.19
2018-08-28T12:26:45.459Z,39.78
2018-08-28T12:29:16.818Z,40.16
2018-08-28T12:31:48.424Z,39.58
2018-08-28T12:34:20.163Z,39.06
2018-08-28T12:36:50.455Z,38.35
2018-08-28T12:39:21.828Z,38.53
2018-08-28T12:41:52.230Z,37.63
2018-08-28T12:44:24.321Z,38.01
2018-08-28T12:46:56.411Z,38.81
2018-08-28T12:49:28.289Z,38.17
2018-08-28T12:51:59.296Z,38.18
2018-08-28T12:54:29.750Z,37.12
2018-08-28T12:57:00.049Z,34.94
2018-08-28T12:59:30.488Z,35.90
2018-08-28T13:02:02.952Z,36.57
2018-08-28T13:04:34.536Z,37.33
2018-08-28T13:07:06.553Z,37.30
2018-08-28T13:09:38.863Z,37.43
2018-08-28T13:12:08.982Z,37.93
2018-08-28T13:14:41.066Z,38.16
2018-08-28T13:17:11.313Z,36.76
2018-08-28T13:19:43.435Z,36.78
2018-08-28T13:22:15.204Z,37.74
2018-08-28T13:24:45.290Z,38.49
2018-08-28T13:27:16.608Z,38.43
2018-08-28T13:29:46.694Z,38.64
2018-08-28T13:32:17.234Z,36.56
2018-08-28T13:34:47.372Z,36.78
2018-08-28T13:37:19.593Z,35.50
2018-08-28T13:39:51.112Z,36.16
2018-08-28T13:42:21.186Z,37.43
2018-08-28T13:44:51.249Z,37.78
2018-08-28T13:47:21.816Z,37.39
2018-08-28T13:49:52.519Z,37.70
2018-08-28T13:52:22.538Z,38.11
2018-08-28T13:54:52.635Z,37.91
2018-08-28T13:57:24.513Z,37.19
2018-08-28T13:59:55.538Z,37.80
2018-08-28T14:02:25.762Z,38.31
2018-08-28T14:04:57.374Z,39.17
2018-08-28T14:07:27.478Z,39.12
2018-08-28T14:09:58.498Z,38.52
2018-08-28T14:12:28.773Z,37.69
2018-08-28T14:14:59.606Z,37.51
2018-08-28T14:17:31.306Z,38.79
2018-08-28T14:20:03.079Z,37.42
2018-08-28T14:22:34.444Z,36.99
2018-08-28T14:25:05.308Z,37.32
2018-08-28T14:27:35.637Z,38.14
2018-08-28T14:30:07.777Z,37.71
2018-08-28T14:32:40.892Z,38.96
2018-08-28T14:35:11.924Z,39.62
2018-08-28T14:37:43.541Z,39.73
2018-08-28T14:40:14.113Z,39.67
2018-08-28T14:42:44.975Z,39.38
2018-08-28T14:45:15.171Z,38.59
2018-08-28T14:47:46.377Z,37.77
2018-08-28T14:50:16.747Z,37.41
2018-08-28T14:52:46.879Z,36.23
2018-08-28T14:55:17.822Z,36.73
2018-08-28T14:57:48.602Z,37.23
2018-08-28T15:00:18.823Z,36.92
2018-08-28T15:02:49.765Z,36.74
2018-08-28T15:05:21.318Z,36.32
2018-08-28T15:07:53.276Z,36.61
2018-08-28T15:10:25.928Z,36.77
2018-08-28T15:12:57.324Z,36.92
2018-08-28T15:15:29.298Z,37.58
2018-08-28T15:18:00.381Z,37.12
2018-08-28T15:20:31.942Z,36.56
2018-08-28T15:23:02.070Z,36.08
2018-08-28T15:25:33.790Z,36.18
2018-08-28T15:28:04.826Z,36.56
2018-08-28T15:30:36.292Z,36.62
2018-08-28T15:33:07.265Z,36.28
2018-08-28T15:35:44.118Z,35.89
2018-08-28T15:38:14.894Z,36.10
2018-08-28T15:40:45.257Z,36.52
2018-08-28T15:43:16.204Z,36.38
2018-08-28T15:45:47.935Z,36.31
2018-08-28T15:48:19.559Z,36.04
2018-08-28T15:50:50.832Z,35.75
2018-08-28T15:53:22.150Z,35.84
2018-08-28T15:55:52.626Z,35.78
2018-08-28T15:58:23.339Z,35.69
2018-08-28T16:00:53.640Z,35.23
2018-08-28T16:03:24.193Z,33.64
2018-08-28T16:05:55.164Z,34.01
2018-08-28T16:08:25.648Z,34.42
2018-08-28T16:10:56.866Z,34.08
2018-08-28T16:13:27.416Z,33.79
2018-08-28T16:15:58.322Z,33.40
2018-08-28T16:18:29.200Z,33.17
2018-08-28T16:21:01.601Z,32.53
2018-08-28T16:23:34.950Z,31.93
2018-08-28T16:26:06.587Z,32.69
2018-08-28T16:28:38.316Z,33.01
2018-08-28T16:31:09.119Z,33.03
2018-08-28T16:33:40.361Z,32.11
2018-08-28T16:36:11.755Z,31.80
2018-08-28T16:38:42.014Z,31.61
2018-08-28T16:41:14.781Z,31.55
2018-08-28T16:43:45.491Z,31.28
2018-08-28T16:46:35.106Z,31.02
2018-08-28T16:49:05.720Z,31.18
2018-08-28T16:51:35.872Z,31.06
2018-08-28T16:54:06.722Z,30.87
2018-08-28T16:56:37.478Z,30.64
2018-08-28T16:59:09.368Z,30.35
2018-08-28T17:01:39.693Z,30.17
2018-08-28T17:04:10.173Z,30.32
2018-08-28T17:06:40.354Z,30.03
2018-08-28T17:09:12.220Z,29.72
2018-08-28T17:11:43.062Z,29.67
2018-08-28T17:14:14.670Z,29.10
2018-08-28T17:16:44.979Z,28.91
2018-08-28T17:19:15.860Z,28.53
2018-08-28T17:21:46.330Z,28.26
2018-08-28T17:24:16.501Z,27.74
2018-08-28T17:26:46.643Z,27.65
2018-08-28T17:29:18.160Z,27.26
2018-08-28T17:31:48.333Z,27.12
2018-08-28T17:34:19.953Z,26.66
2018-08-28T17:36:50.296Z,26.60
2018-08-28T17:39:21.403Z,26.39
2018-08-28T17:41:51.572Z,26.22
2018-08-28T17:44:22.901Z,26.05
2018-08-28T17:46:53.046Z,25.87
2018-08-28T17:49:24.283Z,25.65
2018-08-28T17:51:54.450Z,25.43
2018-08-28T17:54:24.699Z,25.17
2018-08-28T17:56:55.651Z,24.99
2018-08-28T17:59:25.973Z,24.85
2018-08-28T18:01:59.693Z,24.67
2018-08-28T18:04:31.447Z,24.46
2018-08-28T18:07:02.710Z,24.29
2018-08-28T18:09:33.129Z,24.17
2018-08-28T18:12:03.775Z,23.94
2018-08-28T18:14:34.910Z,23.87
2018-08-28T18:17:05.564Z,23.77
2018-08-28T18:19:35.742Z,23.56
2018-08-28T18:22:07.872Z,23.46
2018-08-28T18:24:38.169Z,23.44
2018-08-28T18:27:09.171Z,23.27
2018-08-28T18:29:40.228Z,23.09
2018-08-28T18:32:12.335Z,23.10
2018-08-28T18:34:43.314Z,23.06
2018-08-28T18:37:14.670Z,23.01
2018-08-28T18:39:47.469Z,22.87
2018-08-28T18:42:18.703Z,22.76
2018-08-28T18:44:50.512Z,22.71
2018-08-28T18:47:23.406Z,22.63
2018-08-28T18:49:54.318Z,22.56
2018-08-28T18:52:26.293Z,22.43
2018-08-28T18:54:57.027Z,22.36
2018-08-28T18:57:27.862Z,22.36
2018-08-28T18:59:58.509Z,22.28
2018-08-28T19:02:30.092Z,22.16
2018-08-28T19:05:00.722Z,22.13
2018-08-28T19:07:31.174Z,22.01
2018-08-28T19:10:02.210Z,21.95
2018-08-28T19:12:33.755Z,21.96
2018-08-28T19:15:04.149Z,21.90
2018-08-28T19:17:35.213Z,21.78
2018-08-28T19:20:05.370Z,21.69
2018-08-28T19:22:37.316Z,21.60
2018-08-28T19:25:07.463Z,21.53
2018-08-28T19:27:38.815Z,21.35
2018-08-28T19:30:09.088Z,21.26
2018-08-28T19:32:43.046Z,21.10
2018-08-28T19:35:14.289Z,21.07
2018-08-28T19:37:44.488Z,20.91
2018-08-28T19:40:15.314Z,20.73
2018-08-28T19:42:48.920Z,20.66
2018-08-28T19:45:19.097Z,20.52
2018-08-28T19:47:50.016Z,20.35
2018-08-28T19:50:20.958Z,20.13
2018-08-28T19:52:51.135Z,20.00
2018-08-28T19:55:21.719Z,19.95
2018-08-28T19:57:52.158Z,19.87
2018-08-28T20:00:24.065Z,19.78
2018-08-28T20:02:55.409Z,19.66
2018-08-28T20:05:25.937Z,19.68
2018-08-28T20:07:57.313Z,19.51
2018-08-28T20:10:28.962Z,19.55
2018-08-28T20:13:00.884Z,19.30
2018-08-28T20:15:31.169Z,19.19
2018-08-28T20:18:02.009Z,19.09
2018-08-28T20:20:33.186Z,19.04
2018-08-28T20:23:04.659Z,19.13
2018-08-28T20:25:34.835Z,19.08
2018-08-28T20:28:05.352Z,19.03
2018-08-28T20:30:36.631Z,19.04
2018-08-28T20:33:08.082Z,18.95
2018-08-28T20:35:38.287Z,18.78
2018-08-28T20:38:09.765Z,18.86
2018-08-28T20:40:39.907Z,18.87
2018-08-28T20:43:10.808Z,18.84
2018-08-28T20:45:40.955Z,18.76
2018-08-28T20:48:11.513Z,18.66
2018-08-28T20:50:43.497Z,18.52
2018-08-28T20:53:13.719Z,18.43
2018-08-28T20:55:44.817Z,18.39
2018-08-28T20:58:15.857Z,18.21
2018-08-28T21:00:48.358Z,18.02
2018-08-28T21:03:19.560Z,17.89
2018-08-28T21:05:49.734Z,17.93
2018-08-28T21:08:20.250Z,17.95
2018-08-28T21:10:51.927Z,17.99
2018-08-28T21:13:22.326Z,18.00
2018-08-28T21:15:52.788Z,17.90
2018-08-28T21:18:23.710Z,17.77
2018-08-28T21:20:54.894Z,17.65
2018-08-28T21:23:26.582Z,17.49
2018-08-28T21:25:57.661Z,17.40
2018-08-28T21:28:29.500Z,17.42
2018-08-28T21:30:59.723Z,17.50
2018-08-28T21:33:30.387Z,17.53
2018-08-28T21:36:00.514Z,17.47
2018-08-28T21:38:31.906Z,17.32
2018-08-28T21:41:02.898Z,17.21
2018-08-28T21:43:35.229Z,17.26
2018-08-28T21:46:07.048Z,17.05
2018-08-28T21:48:37.218Z,16.90
2018-08-28T21:51:08.393Z,17.01
2018-08-28T21:53:39.823Z,17.03
2018-08-28T21:56:10.675Z,16.90
2018-08-28T21:58:41.079Z,16.83
2018-08-28T22:01:13.953Z,16.68
2018-08-28T22:03:44.819Z,16.61
2018-08-28T22:06:20.417Z,16.64
2018-08-28T22:08:50.635Z,16.70
2018-08-28T22:11:21.983Z,16.71
2018-08-28T22:13:53.149Z,16.69
2018-08-28T22:16:23.276Z,16.64
2018-08-28T22:18:54.895Z,16.56
2018-08-28T22:21:26.397Z,16.61
2018-08-28T22:23:56.519Z,16.49
2018-08-28T22:26:26.958Z,16.47
2018-08-28T22:28:57.793Z,16.56
2018-08-28T22:31:28.691Z,16.37
2018-08-28T22:33:59.902Z,16.22
2018-08-28T22:36:31.144Z,16.37
2018-08-28T22:39:02.597Z,16.30
2018-08-28T22:41:33.089Z,16.11
2018-08-28T22:44:03.217Z,16.09
2018-08-28T22:46:34.198Z,16.09
2018-08-28T22:49:04.375Z,16.09
2018-08-28T22:51:34.567Z,16.03
2018-08-28T22:54:05.220Z,15.97
2018-08-28T22:56:39.541Z,15.98
2018-08-28T22:59:12.447Z,15.86
2018-08-28T23:01:43.067Z,15.65
2018-08-28T23:04:13.987Z,15.76
2018-08-28T23:06:45.110Z,15.84
2018-08-28T23:09:16.906Z,15.83
2018-08-28T23:11:47.052Z,15.74
2018-08-28T23:14:17.838Z,15.71
2018-08-28T23:16:49.190Z,15.62
2018-08-28T23:19:20.250Z,15.64
2018-08-28T23:21:50.355Z,15.61
2018-08-28T23:24:20.778Z,15.55
2018-08-28T23:26:51.666Z,15.43
2018-08-28T23:29:22.454Z,15.40
2018-08-28T23:31:53.202Z,15.39
2018-08-28T23:34:23.734Z,15.34
2018-08-28T23:36:53.889Z,15.35
2018-08-28T23:39:25.502Z,15.30
2018-08-28T23:41:57.326Z,15.25
2018-08-28T23:44:27.826Z,15.20
2018-08-28T23:46:58.544Z,15.13
2018-08-28T23:49:28.936Z,15.05
2018-08-28T23:51:59.068Z,15.11
2018-08-28T23:54:30.144Z,15.11
2018-08-28T23:57:00.407Z,15.09
2018-08-28T23:59:30.858Z,15.04
